Avior — T8A2553 — position and weather

sailwx.info

Track history (hours):
 
Tides and Currents Weather Stations Pressure Air Temp Water Temp Dewpoint Dewpoint Depression Visibility Wind Speed Wind Dir Waves Ship Positions

Avior

Last reported at 2018-Apr-18 19:43 UTC. Time now 2018-Apr-25 12:41 UTC.
Position N 45°25' E 036°41'.

Length 108 m; draft 2.4 m.

Type: Cargo ship. MMSI: 511470000.

Date/timePositionNaut miles runAvg speedWind from/ knotsBaromVisibWave heightAir tempDewpointWater temp
2018-Apr-18 19:43N 45°25' E 036°41'2 8.6
2018-Apr-18 19:31N 45°24' E 036°41'4 7.6
2018-Apr-18 19:00N 45°20' E 036°38'8 4.7
2018-Apr-18 17:21N 45°16' E 036°29'3 0.6
2018-Apr-18 11:57N 45°13' E 036°31'  
2018-Apr-10 05:08N 37°39' E 023°45'1 8.4
2018-Apr-10 05:00N 37°39' E 023°43'4 8.6
2018-Apr-10 04:30N 37°43' E 023°41'4 8.6
2018-Apr-10 03:59N 37°47' E 023°38'4 7.6
2018-Apr-10 03:30N 37°49' E 023°35'4 8.6
2018-Apr-10 03:00N 37°50' E 023°30'4 8.5
2018-Apr-10 02:30N 37°51' E 023°24'5 8.6
2018-Apr-10 01:54N 37°51' E 023°18'4 8.7
2018-Apr-10 01:30N 37°52' E 023°13'4 8.7
2018-Apr-10 01:00N 37°53' E 023°08'4 8.5
2018-Apr-10 00:30N 37°54' E 023°03'5 4.6
2018-Apr-09 23:23N 37°57' E 022°58'2 3.8
2018-Apr-09 22:54N 37°58' E 022°56'  
Track history (hours):
 
Tides and Currents Weather Stations Pressure Air Temp Water Temp Dewpoint Dewpoint Depression Visibility Wind Speed Wind Dir Waves Ship Positions

Avior

Last reported at 2018-Apr-18 19:43 UTC. Time now 2018-Apr-25 12:41 UTC.
Position N 45°25' E 036°41'.

Length 108 m; draft 2.4 m.

Type: Cargo ship. MMSI: 511470000.

Date/timePositionNaut miles runAvg speedWind from/ knotsBaromVisibWave heightAir tempDewpointWater temp
2018-Apr-18 19:43N 45°25' E 036°41'2 8.6
2018-Apr-18 19:31N 45°24' E 036°41'4 7.6
2018-Apr-18 19:00N 45°20' E 036°38'8 4.7
2018-Apr-18 17:21N 45°16' E 036°29'3 0.6
2018-Apr-18 11:57N 45°13' E 036°31'  
2018-Apr-10 05:08N 37°39' E 023°45'1 8.4
2018-Apr-10 05:00N 37°39' E 023°43'4 8.6
2018-Apr-10 04:30N 37°43' E 023°41'4 8.6
2018-Apr-10 03:59N 37°47' E 023°38'4 7.6
2018-Apr-10 03:30N 37°49' E 023°35'4 8.6
2018-Apr-10 03:00N 37°50' E 023°30'4 8.5
2018-Apr-10 02:30N 37°51' E 023°24'5 8.6
2018-Apr-10 01:54N 37°51' E 023°18'4 8.7
2018-Apr-10 01:30N 37°52' E 023°13'4 8.7
2018-Apr-10 01:00N 37°53' E 023°08'4 8.5
2018-Apr-10 00:30N 37°54' E 023°03'5 4.6
2018-Apr-09 23:23N 37°57' E 022°58'2 3.8
2018-Apr-09 22:54N 37°58' E 022°56'  

Dump ship's entire track history